sensor_id;sensor_type;location;lat;lon;timestamp;pressure;altitude;pressure_sealevel;temperature;humidity
19827;BME280;10074;52.018;4.726;2023-04-12T00:02:49;46183.16;;;-144.79;100.00
19827;BME280;10074;52.018;4.726;2023-04-12T00:07:53;46199.19;;;-144.79;100.00
19827;BME280;10074;52.018;4.726;2023-04-12T00:12:54;46195.19;;;-144.79;100.00
19827;BME280;10074;52.018;4.726;2023-04-12T00:17:55;46191.19;;;-144.79;100.00
19827;BME280;10074;52.018;4.726;2023-04-12T00:22:55;46199.19;;;-144.79;100.00
19827;BME280;10074;52.018;4.726;2023-04-12T00:27:56;46181.16;;;-144.79;100.00
19827;BME280;10074;52.018;4.726;2023-04-12T00:32:58;46191.19;;;-144.79;100.00
19827;BME280;10074;52.018;4.726;2023-04-12T00:37:58;46199.19;;;-144.79;100.00
19827;BME280;10074;52.018;4.726;2023-04-12T00:42:59;46181.16;;;-144.79;100.00
19827;BME280;10074;52.018;4.726;2023-04-12T00:48:00;46201.22;;;-144.79;100.00
19827;BME280;10074;52.018;4.726;2023-04-12T00:53:02;46207.22;;;-144.79;100.00
19827;BME280;10074;52.018;4.726;2023-04-12T00:58:03;46189.19;;;-144.79;100.00
19827;BME280;10074;52.018;4.726;2023-04-12T01:03:05;46183.16;;;-144.79;100.00
19827;BME280;10074;52.018;4.726;2023-04-12T01:13:50;46203.22;;;-144.79;100.00
19827;BME280;10074;52.018;4.726;2023-04-12T01:18:53;46187.19;;;-144.79;100.00
19827;BME280;10074;52.018;4.726;2023-04-12T01:29:23;46191.19;;;-144.79;100.00
19827;BME280;10074;52.018;4.726;2023-04-12T01:34:27;46199.19;;;-144.79;100.00
19827;BME280;10074;52.018;4.726;2023-04-12T01:39:30;46203.22;;;-144.79;100.00
19827;BME280;10074;52.018;4.726;2023-04-12T01:44:31;46191.19;;;-144.79;100.00
19827;BME280;10074;52.018;4.726;2023-04-12T01:49:35;46195.19;;;-144.79;100.00
19827;BME280;10074;52.018;4.726;2023-04-12T01:54:40;46195.19;;;-144.79;100.00
19827;BME280;10074;52.018;4.726;2023-04-12T01:59:42;46211.22;;;-144.79;100.00
19827;BME280;10074;52.018;4.726;2023-04-12T02:04:44;46195.19;;;-144.79;100.00
19827;BME280;10074;52.018;4.726;2023-04-12T02:09:44;46191.19;;;-144.79;100.00
19827;BME280;10074;52.018;4.726;2023-04-12T02:14:46;46185.16;;;-144.79;100.00
19827;BME280;10074;52.018;4.726;2023-04-12T02:19:47;46191.19;;;-144.79;100.00
19827;BME280;10074;52.018;4.726;2023-04-12T02:24:47;46211.22;;;-144.79;100.00
19827;BME280;10074;52.018;4.726;2023-04-12T02:29:48;46203.22;;;-144.79;100.00
19827;BME280;10074;52.018;4.726;2023-04-12T02:34:48;46207.22;;;-144.79;100.00
19827;BME280;10074;52.018;4.726;2023-04-12T02:39:50;46205.22;;;-144.79;100.00
19827;BME280;10074;52.018;4.726;2023-04-12T02:44:50;46191.19;;;-144.79;100.00
19827;BME280;10074;52.018;4.726;2023-04-12T02:49:51;46199.19;;;-144.79;100.00
19827;BME280;10074;52.018;4.726;2023-04-12T02:54:51;46217.25;;;-144.79;100.00
19827;BME280;10074;52.018;4.726;2023-04-12T02:59:52;46203.22;;;-144.79;100.00
19827;BME280;10074;52.018;4.726;2023-04-12T03:04:53;46189.19;;;-144.79;100.00
19827;BME280;10074;52.018;4.726;2023-04-12T03:09:53;46199.19;;;-144.79;100.00
19827;BME280;10074;52.018;4.726;2023-04-12T03:14:54;46191.19;;;-144.79;100.00
19827;BME280;10074;52.018;4.726;2023-04-12T03:19:55;46199.19;;;-144.79;100.00
19827;BME280;10074;52.018;4.726;2023-04-12T03:24:57;46191.19;;;-144.79;100.00
19827;BME280;10074;52.018;4.726;2023-04-12T03:29:57;46203.22;;;-144.79;100.00
19827;BME280;10074;52.018;4.726;2023-04-12T03:34:59;46189.19;;;-144.79;100.00
19827;BME280;10074;52.018;4.726;2023-04-12T03:39:59;46189.19;;;-144.79;100.00
19827;BME280;10074;52.018;4.726;2023-04-12T03:45:00;46199.19;;;-144.79;100.00
19827;BME280;10074;52.018;4.726;2023-04-12T03:50:02;46195.19;;;-144.79;100.00
19827;BME280;10074;52.018;4.726;2023-04-12T03:55:05;46173.13;;;-144.79;100.00
19827;BME280;10074;52.018;4.726;2023-04-12T04:00:06;46201.22;;;-144.79;100.00
19827;BME280;10074;52.018;4.726;2023-04-12T04:05:07;46195.19;;;-144.79;100.00
19827;BME280;10074;52.018;4.726;2023-04-12T04:10:09;46189.19;;;-144.79;100.00
19827;BME280;10074;52.018;4.726;2023-04-12T04:15:10;46197.19;;;-144.79;100.00
19827;BME280;10074;52.018;4.726;2023-04-12T04:20:10;46209.22;;;-144.79;100.00
19827;BME280;10074;52.018;4.726;2023-04-12T04:25:13;46201.22;;;-144.79;100.00
19827;BME280;10074;52.018;4.726;2023-04-12T04:30:14;46217.25;;;-144.79;100.00
19827;BME280;10074;52.018;4.726;2023-04-12T04:35:15;46201.22;;;-144.79;100.00
19827;BME280;10074;52.018;4.726;2023-04-12T04:40:16;46215.25;;;-144.79;100.00
19827;BME280;10074;52.018;4.726;2023-04-12T04:45:18;46213.25;;;-144.79;100.00
19827;BME280;10074;52.018;4.726;2023-04-12T04:50:21;46191.19;;;-144.79;100.00
19827;BME280;10074;52.018;4.726;2023-04-12T04:55:22;46205.22;;;-144.79;100.00
19827;BME280;10074;52.018;4.726;2023-04-12T05:00:26;46209.22;;;-144.79;100.00
19827;BME280;10074;52.018;4.726;2023-04-12T05:05:26;46211.22;;;-144.79;100.00
19827;BME280;10074;52.018;4.726;2023-04-12T05:10:27;46217.25;;;-144.79;100.00
19827;BME280;10074;52.018;4.726;2023-04-12T05:15:29;46193.19;;;-144.79;100.00
19827;BME280;10074;52.018;4.726;2023-04-12T05:20:30;46203.22;;;-144.79;100.00
19827;BME280;10074;52.018;4.726;2023-04-12T05:25:31;46207.22;;;-144.79;100.00
19827;BME280;10074;52.018;4.726;2023-04-12T05:30:32;46217.25;;;-144.79;100.00
19827;BME280;10074;52.018;4.726;2023-04-12T05:35:32;46201.22;;;-144.79;100.00
19827;BME280;10074;52.018;4.726;2023-04-12T05:40:33;46205.22;;;-144.79;100.00
19827;BME280;10074;52.018;4.726;2023-04-12T05:45:35;46211.22;;;-144.79;100.00
19827;BME280;10074;52.018;4.726;2023-04-12T05:50:35;46189.19;;;-144.79;100.00
19827;BME280;10074;52.018;4.726;2023-04-12T05:55:35;46211.22;;;-144.79;100.00
19827;BME280;10074;52.018;4.726;2023-04-12T06:00:38;46211.22;;;-144.79;100.00
19827;BME280;10074;52.018;4.726;2023-04-12T06:05:39;46191.19;;;-144.79;100.00
19827;BME280;10074;52.018;4.726;2023-04-12T06:10:39;46201.22;;;-144.79;100.00
19827;BME280;10074;52.018;4.726;2023-04-12T06:15:40;46203.22;;;-144.79;100.00
19827;BME280;10074;52.018;4.726;2023-04-12T06:20:40;46193.19;;;-144.79;100.00
19827;BME280;10074;52.018;4.726;2023-04-12T06:25:41;46205.22;;;-144.79;100.00
19827;BME280;10074;52.018;4.726;2023-04-12T06:30:41;46203.22;;;-144.79;100.00
19827;BME280;10074;52.018;4.726;2023-04-12T06:35:41;46205.22;;;-144.79;100.00
19827;BME280;10074;52.018;4.726;2023-04-12T06:40:42;46199.19;;;-144.79;100.00
19827;BME280;10074;52.018;4.726;2023-04-12T06:45:42;46203.22;;;-144.79;100.00
19827;BME280;10074;52.018;4.726;2023-04-12T06:50:45;46211.22;;;-144.79;100.00
19827;BME280;10074;52.018;4.726;2023-04-12T06:55:45;46201.22;;;-144.79;100.00
19827;BME280;10074;52.018;4.726;2023-04-12T07:00:46;46193.19;;;-144.79;100.00
19827;BME280;10074;52.018;4.726;2023-04-12T07:05:46;46203.22;;;-144.79;100.00
19827;BME280;10074;52.018;4.726;2023-04-12T07:10:52;46203.22;;;-144.79;100.00
19827;BME280;10074;52.018;4.726;2023-04-12T07:15:52;46213.25;;;-144.79;100.00
19827;BME280;10074;52.018;4.726;2023-04-12T07:20:55;46191.19;;;-144.79;100.00
19827;BME280;10074;52.018;4.726;2023-04-12T07:25:59;46199.19;;;-144.79;100.00
19827;BME280;10074;52.018;4.726;2023-04-12T07:31:04;46209.22;;;-144.79;100.00
19827;BME280;10074;52.018;4.726;2023-04-12T07:36:05;46195.19;;;-144.79;100.00
19827;BME280;10074;52.018;4.726;2023-04-12T07:41:05;46187.19;;;-144.79;100.00
19827;BME280;10074;52.018;4.726;2023-04-12T07:46:05;46203.22;;;-144.79;100.00
19827;BME280;10074;52.018;4.726;2023-04-12T07:51:07;46187.19;;;-144.79;100.00
19827;BME280;10074;52.018;4.726;2023-04-12T07:56:08;46203.22;;;-144.79;100.00
19827;BME280;10074;52.018;4.726;2023-04-12T08:01:10;46191.19;;;-144.79;100.00
19827;BME280;10074;52.018;4.726;2023-04-12T08:06:11;46209.22;;;-144.79;100.00
19827;BME280;10074;52.018;4.726;2023-04-12T08:11:11;46195.19;;;-144.79;100.00
19827;BME280;10074;52.018;4.726;2023-04-12T08:16:11;46191.19;;;-144.79;100.00
19827;BME280;10074;52.018;4.726;2023-04-12T08:21:12;46195.19;;;-144.79;100.00
19827;BME280;10074;52.018;4.726;2023-04-12T08:26:12;46195.19;;;-144.79;100.00
19827;BME280;10074;52.018;4.726;2023-04-12T08:31:13;46199.19;;;-144.79;100.00
19827;BME280;10074;52.018;4.726;2023-04-12T08:36:14;46211.22;;;-144.79;100.00
19827;BME280;10074;52.018;4.726;2023-04-12T08:41:14;46199.19;;;-144.79;100.00
19827;BME280;10074;52.018;4.726;2023-04-12T08:46:15;46203.22;;;-144.79;100.00
19827;BME280;10074;52.018;4.726;2023-04-12T08:51:19;46209.22;;;-144.79;100.00
19827;BME280;10074;52.018;4.726;2023-04-12T08:56:21;46201.22;;;-144.79;100.00
19827;BME280;10074;52.018;4.726;2023-04-12T09:01:21;46197.19;;;-144.79;100.00
19827;BME280;10074;52.018;4.726;2023-04-12T09:06:22;46199.19;;;-144.79;100.00
19827;BME280;10074;52.018;4.726;2023-04-12T09:11:28;46201.22;;;-144.79;100.00
19827;BME280;10074;52.018;4.726;2023-04-12T09:16:41;46199.19;;;-144.79;100.00
19827;BME280;10074;52.018;4.726;2023-04-12T09:21:55;46199.19;;;-144.79;100.00
19827;BME280;10074;52.018;4.726;2023-04-12T09:27:05;46201.22;;;-144.79;100.00
19827;BME280;10074;52.018;4.726;2023-04-12T09:32:08;46203.22;;;-144.79;100.00
19827;BME280;10074;52.018;4.726;2023-04-12T09:37:13;46205.22;;;-144.79;100.00
19827;BME280;10074;52.018;4.726;2023-04-12T09:42:13;46199.19;;;-144.79;100.00
19827;BME280;10074;52.018;4.726;2023-04-12T09:47:14;46187.19;;;-144.79;100.00
19827;BME280;10074;52.018;4.726;2023-04-12T09:52:14;46197.19;;;-144.79;100.00
19827;BME280;10074;52.018;4.726;2023-04-12T09:57:16;46199.19;;;-144.79;100.00
19827;BME280;10074;52.018;4.726;2023-04-12T10:02:25;46213.25;;;-144.79;100.00
19827;BME280;10074;52.018;4.726;2023-04-12T10:07:26;46203.22;;;-144.79;100.00
19827;BME280;10074;52.018;4.726;2023-04-12T10:12:27;46211.22;;;-144.79;100.00
19827;BME280;10074;52.018;4.726;2023-04-12T10:17:27;46215.25;;;-144.79;100.00
19827;BME280;10074;52.018;4.726;2023-04-12T10:22:28;46189.19;;;-144.79;100.00
19827;BME280;10074;52.018;4.726;2023-04-12T10:27:28;46191.19;;;-144.79;100.00
19827;BME280;10074;52.018;4.726;2023-04-12T10:32:28;46187.19;;;-144.79;100.00
19827;BME280;10074;52.018;4.726;2023-04-12T10:38:00;46197.19;;;-144.79;100.00
19827;BME280;10074;52.018;4.726;2023-04-12T10:43:23;46195.19;;;-144.79;100.00
19827;BME280;10074;52.018;4.726;2023-04-12T10:48:30;46191.19;;;-144.79;100.00
19827;BME280;10074;52.018;4.726;2023-04-12T10:53:31;46171.13;;;-144.79;100.00
19827;BME280;10074;52.018;4.726;2023-04-12T11:09:05;46175.16;;;-144.79;100.00
19827;BME280;10074;52.018;4.726;2023-04-12T11:14:08;46195.19;;;-144.79;100.00
19827;BME280;10074;52.018;4.726;2023-04-12T11:19:09;46191.19;;;-144.79;100.00
19827;BME280;10074;52.018;4.726;2023-04-12T11:24:10;46195.19;;;-144.79;100.00
19827;BME280;10074;52.018;4.726;2023-04-12T11:29:13;46183.16;;;-144.79;100.00
19827;BME280;10074;52.018;4.726;2023-04-12T11:34:18;46199.19;;;-144.79;100.00
19827;BME280;10074;52.018;4.726;2023-04-12T11:39:19;46201.22;;;-144.79;100.00
19827;BME280;10074;52.018;4.726;2023-04-12T11:44:21;46175.16;;;-144.79;100.00
19827;BME280;10074;52.018;4.726;2023-04-12T11:49:22;46181.16;;;-144.79;100.00
19827;BME280;10074;52.018;4.726;2023-04-12T11:54:27;46183.16;;;-144.79;100.00
19827;BME280;10074;52.018;4.726;2023-04-12T11:59:31;46203.22;;;-144.79;100.00
19827;BME280;10074;52.018;4.726;2023-04-12T12:04:33;46193.19;;;-144.79;100.00
19827;BME280;10074;52.018;4.726;2023-04-12T12:09:34;46189.19;;;-144.79;100.00
19827;BME280;10074;52.018;4.726;2023-04-12T12:14:35;46191.19;;;-144.79;100.00
19827;BME280;10074;52.018;4.726;2023-04-12T12:19:37;46203.22;;;-144.79;100.00
19827;BME280;10074;52.018;4.726;2023-04-12T12:24:43;46191.19;;;-144.79;100.00
19827;BME280;10074;52.018;4.726;2023-04-12T12:29:48;46193.19;;;-144.79;100.00
19827;BME280;10074;52.018;4.726;2023-04-12T12:34:58;46189.19;;;-144.79;100.00
19827;BME280;10074;52.018;4.726;2023-04-12T12:40:08;46195.19;;;-144.79;100.00
19827;BME280;10074;52.018;4.726;2023-04-12T12:45:22;46177.16;;;-144.79;100.00
19827;BME280;10074;52.018;4.726;2023-04-12T12:50:28;46183.16;;;-144.79;100.00
19827;BME280;10074;52.018;4.726;2023-04-12T12:55:29;46175.16;;;-144.79;100.00
19827;BME280;10074;52.018;4.726;2023-04-12T13:00:30;46183.16;;;-144.79;100.00
19827;BME280;10074;52.018;4.726;2023-04-12T13:05:30;46197.19;;;-144.79;100.00
19827;BME280;10074;52.018;4.726;2023-04-12T13:10:31;46199.19;;;-144.79;100.00
19827;BME280;10074;52.018;4.726;2023-04-12T13:15:31;46195.19;;;-144.79;100.00
19827;BME280;10074;52.018;4.726;2023-04-12T13:20:32;46195.19;;;-144.79;100.00
19827;BME280;10074;52.018;4.726;2023-04-12T13:25:33;46183.16;;;-144.79;100.00
19827;BME280;10074;52.018;4.726;2023-04-12T13:30:33;46191.19;;;-144.79;100.00
19827;BME280;10074;52.018;4.726;2023-04-12T13:35:34;46175.16;;;-144.79;100.00
19827;BME280;10074;52.018;4.726;2023-04-12T13:40:34;46183.16;;;-144.79;100.00
19827;BME280;10074;52.018;4.726;2023-04-12T13:45:34;46187.19;;;-144.79;100.00
19827;BME280;10074;52.018;4.726;2023-04-12T13:50:35;46199.19;;;-144.79;100.00
19827;BME280;10074;52.018;4.726;2023-04-12T13:55:35;46187.19;;;-144.79;100.00
19827;BME280;10074;52.018;4.726;2023-04-12T14:00:36;46177.16;;;-144.79;100.00
19827;BME280;10074;52.018;4.726;2023-04-12T14:05:36;46175.16;;;-144.79;100.00
19827;BME280;10074;52.018;4.726;2023-04-12T14:10:36;46143.06;;;-144.79;100.00
19827;BME280;10074;52.018;4.726;2023-04-12T14:15:37;46143.06;;;-144.79;100.00
19827;BME280;10074;52.018;4.726;2023-04-12T14:20:37;46137.06;;;-144.79;100.00
19827;BME280;10074;52.018;4.726;2023-04-12T14:25:38;46149.06;;;-144.79;100.00
19827;BME280;10074;52.018;4.726;2023-04-12T14:30:38;46155.09;;;-144.79;100.00
19827;BME280;10074;52.018;4.726;2023-04-12T14:35:39;46155.09;;;-144.79;100.00
19827;BME280;10074;52.018;4.726;2023-04-12T14:40:40;46167.13;;;-144.79;100.00
19827;BME280;10074;52.018;4.726;2023-04-12T14:45:40;46221.25;;;-144.79;100.00
19827;BME280;10074;52.018;4.726;2023-04-12T14:50:40;46285.41;;;-144.79;100.00
19827;BME280;10074;52.018;4.726;2023-04-12T14:55:43;46323.53;;;-144.79;100.00
19827;BME280;10074;52.018;4.726;2023-04-12T15:00:43;46397.72;;;-144.79;100.00
19827;BME280;10074;52.018;4.726;2023-04-12T15:05:44;46415.75;;;-144.79;100.00
19827;BME280;10074;52.018;4.726;2023-04-12T15:10:44;46576.16;;;-144.79;100.00
19827;BME280;10074;52.018;4.726;2023-04-12T15:15:45;46564.13;;;-144.79;100.00
19827;BME280;10074;52.018;4.726;2023-04-12T15:20:46;46640.34;;;-144.79;99.46
19827;BME280;10074;52.018;4.726;2023-04-12T15:25:46;46662.41;;;-144.79;99.11
19827;BME280;10074;52.018;4.726;2023-04-12T15:30:46;46692.47;;;-144.79;98.72
19827;BME280;10074;52.018;4.726;2023-04-12T15:35:47;46668.41;;;-144.79;98.96
19827;BME280;10074;52.018;4.726;2023-04-12T15:40:56;46672.41;;;-144.79;98.72
19827;BME280;10074;52.018;4.726;2023-04-12T15:45:57;46684.44;;;-144.79;98.44
19827;BME280;10074;52.018;4.726;2023-04-12T15:50:58;46728.56;;;-144.79;98.29
19827;BME280;10074;52.018;4.726;2023-04-12T15:55:58;46736.59;;;-144.79;97.89
19827;BME280;10074;52.018;4.726;2023-04-12T16:00:59;46750.63;;;-144.79;96.80
19827;BME280;10074;52.018;4.726;2023-04-12T16:05:59;46800.75;;;-144.79;95.91
19827;BME280;10074;52.018;4.726;2023-04-12T16:11:00;46790.72;;;-144.79;96.89
19827;BME280;10074;52.018;4.726;2023-04-12T16:16:00;46790.72;;;-144.79;95.64
19827;BME280;10074;52.018;4.726;2023-04-12T16:21:00;46822.81;;;-144.79;94.26
19827;BME280;10074;52.018;4.726;2023-04-12T16:26:01;46806.78;;;-144.79;93.64
19827;BME280;10074;52.018;4.726;2023-04-12T16:31:02;46832.84;;;-144.79;93.76
19827;BME280;10074;52.018;4.726;2023-04-12T16:36:02;46796.75;;;-144.79;95.11
19827;BME280;10074;52.018;4.726;2023-04-12T16:41:03;46800.75;;;-144.79;95.16
19827;BME280;10074;52.018;4.726;2023-04-12T16:46:04;46812.78;;;-144.79;95.23
19827;BME280;10074;52.018;4.726;2023-04-12T16:51:05;46824.81;;;-144.79;94.63
19827;BME280;10074;52.018;4.726;2023-04-12T16:56:05;46826.84;;;-144.79;94.67
19827;BME280;10074;52.018;4.726;2023-04-12T17:01:06;46800.75;;;-144.79;95.27
19827;BME280;10074;52.018;4.726;2023-04-12T17:06:07;46802.78;;;-144.79;95.31
19827;BME280;10074;52.018;4.726;2023-04-12T17:11:07;46808.78;;;-144.79;94.62
19827;BME280;10074;52.018;4.726;2023-04-12T17:16:08;46812.78;;;-144.79;94.48
19827;BME280;10074;52.018;4.726;2023-04-12T17:21:09;46814.81;;;-144.79;93.32
19827;BME280;10074;52.018;4.726;2023-04-12T17:26:10;46822.81;;;-144.79;93.37
19827;BME280;10074;52.018;4.726;2023-04-12T17:31:10;46804.78;;;-144.79;94.47
19827;BME280;10074;52.018;4.726;2023-04-12T17:36:10;46806.78;;;-144.79;93.96
19827;BME280;10074;52.018;4.726;2023-04-12T17:41:10;46822.81;;;-144.79;94.41
19827;BME280;10074;52.018;4.726;2023-04-12T17:46:11;46832.84;;;-144.79;94.39
19827;BME280;10074;52.018;4.726;2023-04-12T17:51:11;46812.78;;;-144.79;95.53
19827;BME280;10074;52.018;4.726;2023-04-12T17:56:12;46822.81;;;-144.79;95.63
19827;BME280;10074;52.018;4.726;2023-04-12T18:01:12;46782.72;;;-144.79;95.77
19827;BME280;10074;52.018;4.726;2023-04-12T18:06:12;46788.72;;;-144.79;96.47
19827;BME280;10074;52.018;4.726;2023-04-12T18:11:12;46772.69;;;-144.79;96.88
19827;BME280;10074;52.018;4.726;2023-04-12T18:16:13;46758.66;;;-144.79;97.30
19827;BME280;10074;52.018;4.726;2023-04-12T18:21:13;46764.66;;;-144.79;97.94
19827;BME280;10074;52.018;4.726;2023-04-12T18:26:20;46740.59;;;-144.79;98.30
19827;BME280;10074;52.018;4.726;2023-04-12T18:31:20;46696.47;;;-144.79;99.11
19827;BME280;10074;52.018;4.726;2023-04-12T18:36:24;46674.44;;;-144.79;99.28
19827;BME280;10074;52.018;4.726;2023-04-12T18:41:26;46674.44;;;-144.79;99.83
19827;BME280;10074;52.018;4.726;2023-04-12T18:46:26;46632.31;;;-144.79;100.00
19827;BME280;10074;52.018;4.726;2023-04-12T18:51:27;46584.19;;;-144.79;100.00
19827;BME280;10074;52.018;4.726;2023-04-12T18:56:28;46542.06;;;-144.79;100.00
19827;BME280;10074;52.018;4.726;2023-04-12T19:01:28;46495.97;;;-144.79;100.00
19827;BME280;10074;52.018;4.726;2023-04-12T19:06:29;46483.94;;;-144.79;100.00
19827;BME280;10074;52.018;4.726;2023-04-12T19:11:29;46411.75;;;-144.79;100.00
19827;BME280;10074;52.018;4.726;2023-04-12T19:16:29;46411.75;;;-144.79;100.00
19827;BME280;10074;52.018;4.726;2023-04-12T19:21:30;46383.66;;;-144.79;100.00
19827;BME280;10074;52.018;4.726;2023-04-12T19:26:31;46357.59;;;-144.79;100.00
19827;BME280;10074;52.018;4.726;2023-04-12T19:31:31;46315.50;;;-144.79;100.00
19827;BME280;10074;52.018;4.726;2023-04-12T19:36:34;46331.53;;;-144.79;100.00
19827;BME280;10074;52.018;4.726;2023-04-12T19:41:34;46315.50;;;-144.79;100.00
19827;BME280;10074;52.018;4.726;2023-04-12T19:46:35;46267.38;;;-144.79;100.00
19827;BME280;10074;52.018;4.726;2023-04-12T19:51:37;46259.34;;;-144.79;100.00
19827;BME280;10074;52.018;4.726;2023-04-12T19:56:38;46291.44;;;-144.79;100.00
19827;BME280;10074;52.018;4.726;2023-04-12T20:01:38;46249.34;;;-144.79;100.00
19827;BME280;10074;52.018;4.726;2023-04-12T20:06:49;46255.34;;;-144.79;100.00
19827;BME280;10074;52.018;4.726;2023-04-12T20:11:51;46239.31;;;-144.79;100.00
19827;BME280;10074;52.018;4.726;2023-04-12T20:16:51;46219.25;;;-144.79;100.00
19827;BME280;10074;52.018;4.726;2023-04-12T20:21:54;46245.31;;;-144.79;100.00
19827;BME280;10074;52.018;4.726;2023-04-12T20:27:00;46211.22;;;-144.79;100.00
19827;BME280;10074;52.018;4.726;2023-04-12T20:32:01;46203.22;;;-144.79;100.00
19827;BME280;10074;52.018;4.726;2023-04-12T20:37:01;46201.22;;;-144.79;100.00
19827;BME280;10074;52.018;4.726;2023-04-12T20:42:02;46197.19;;;-144.79;100.00
19827;BME280;10074;52.018;4.726;2023-04-12T20:47:02;46221.25;;;-144.79;100.00
19827;BME280;10074;52.018;4.726;2023-04-12T20:52:03;46187.19;;;-144.79;100.00
19827;BME280;10074;52.018;4.726;2023-04-12T20:57:03;46177.16;;;-144.79;100.00
19827;BME280;10074;52.018;4.726;2023-04-12T21:02:04;46197.19;;;-144.79;100.00
19827;BME280;10074;52.018;4.726;2023-04-12T21:07:04;46177.16;;;-144.79;100.00
19827;BME280;10074;52.018;4.726;2023-04-12T21:12:05;46185.16;;;-144.79;100.00
19827;BME280;10074;52.018;4.726;2023-04-12T21:17:07;46179.16;;;-144.79;100.00
19827;BME280;10074;52.018;4.726;2023-04-12T21:22:08;46171.13;;;-144.79;100.00
19827;BME280;10074;52.018;4.726;2023-04-12T21:27:08;46183.16;;;-144.79;100.00
19827;BME280;10074;52.018;4.726;2023-04-12T21:32:08;46181.16;;;-144.79;100.00
19827;BME280;10074;52.018;4.726;2023-04-12T21:37:09;46163.13;;;-144.79;100.00
19827;BME280;10074;52.018;4.726;2023-04-12T21:42:09;46193.19;;;-144.79;100.00
19827;BME280;10074;52.018;4.726;2023-04-12T21:47:10;46161.09;;;-144.79;100.00
19827;BME280;10074;52.018;4.726;2023-04-12T21:52:11;46165.13;;;-144.79;100.00
19827;BME280;10074;52.018;4.726;2023-04-12T21:57:11;46171.13;;;-144.79;100.00
19827;BME280;10074;52.018;4.726;2023-04-12T22:02:11;46191.19;;;-144.79;100.00
19827;BME280;10074;52.018;4.726;2023-04-12T22:07:12;46191.19;;;-144.79;100.00
19827;BME280;10074;52.018;4.726;2023-04-12T22:12:15;46205.22;;;-144.79;100.00
19827;BME280;10074;52.018;4.726;2023-04-12T22:17:18;46201.22;;;-144.79;100.00
19827;BME280;10074;52.018;4.726;2023-04-12T22:22:19;46157.09;;;-144.79;100.00
19827;BME280;10074;52.018;4.726;2023-04-12T22:27:19;46167.13;;;-144.79;100.00
19827;BME280;10074;52.018;4.726;2023-04-12T22:32:20;46177.16;;;-144.79;100.00
19827;BME280;10074;52.018;4.726;2023-04-12T22:37:20;46205.22;;;-144.79;100.00
19827;BME280;10074;52.018;4.726;2023-04-12T22:42:21;46187.19;;;-144.79;100.00
19827;BME280;10074;52.018;4.726;2023-04-12T22:47:25;46195.19;;;-144.79;100.00
19827;BME280;10074;52.018;4.726;2023-04-12T22:52:26;46175.16;;;-144.79;100.00
19827;BME280;10074;52.018;4.726;2023-04-12T22:57:29;46183.16;;;-144.79;100.00
19827;BME280;10074;52.018;4.726;2023-04-12T23:02:30;46225.28;;;-144.79;100.00
19827;BME280;10074;52.018;4.726;2023-04-12T23:07:30;46203.22;;;-144.79;100.00
19827;BME280;10074;52.018;4.726;2023-04-12T23:12:30;46189.19;;;-144.79;100.00
19827;BME280;10074;52.018;4.726;2023-04-12T23:17:31;46195.19;;;-144.79;100.00
19827;BME280;10074;52.018;4.726;2023-04-12T23:22:32;46191.19;;;-144.79;100.00
19827;BME280;10074;52.018;4.726;2023-04-12T23:27:32;46183.16;;;-144.79;100.00
19827;BME280;10074;52.018;4.726;2023-04-12T23:32:33;46187.19;;;-144.79;100.00
19827;BME280;10074;52.018;4.726;2023-04-12T23:37:33;46157.09;;;-144.79;100.00
19827;BME280;10074;52.018;4.726;2023-04-12T23:42:35;46165.13;;;-144.79;100.00
19827;BME280;10074;52.018;4.726;2023-04-12T23:47:36;46171.13;;;-144.79;100.00
19827;BME280;10074;52.018;4.726;2023-04-12T23:52:37;46195.19;;;-144.79;100.00
19827;BME280;10074;52.018;4.726;2023-04-12T23:57:37;46163.13;;;-144.79;100.00
